createdAt,value
2019-02-26T00:00:07.628Z,54.28
2019-02-26T00:02:39.628Z,54.43
2019-02-26T00:05:06.819Z,54.37
2019-02-26T00:07:34.015Z,54.49
2019-02-26T00:10:02.610Z,54.68
2019-02-26T00:12:31.115Z,54.74
2019-02-26T00:15:00.295Z,54.67
2019-02-26T00:17:28.647Z,54.66
2019-02-26T00:19:55.822Z,54.55
2019-02-26T00:22:22.987Z,54.51
2019-02-26T00:24:50.251Z,54.56
2019-02-26T00:27:17.544Z,54.52
2019-02-26T00:29:46.369Z,54.42
2019-02-26T00:32:15.717Z,54.46
2019-02-26T00:34:43.002Z,54.48
2019-02-26T00:37:10.196Z,54.57
2019-02-26T00:39:37.355Z,54.58
2019-02-26T00:42:05.215Z,54.66
2019-02-26T00:44:34.553Z,54.75
2019-02-26T00:47:04.288Z,54.79
2019-02-26T00:49:30.865Z,54.90
2019-02-26T00:51:58.104Z,54.90
2019-02-26T00:54:26.653Z,54.86
2019-02-26T00:56:57.042Z,54.96
2019-02-26T00:59:23.608Z,55.02
2019-02-26T01:01:52.621Z,55.06
2019-02-26T01:04:20.045Z,55.03
2019-02-26T01:06:47.282Z,55.08
2019-02-26T01:09:15.068Z,55.26
2019-02-26T01:11:42.930Z,55.60
2019-02-26T01:14:11.380Z,55.17
2019-02-26T01:16:39.435Z,55.15
2019-02-26T01:19:09.039Z,55.20
2019-02-26T01:21:37.907Z,55.72
2019-02-26T01:24:06.455Z,55.72
2019-02-26T01:26:34.317Z,55.41
2019-02-26T01:29:01.565Z,55.48
2019-02-26T01:31:29.793Z,55.37
2019-02-26T01:33:58.056Z,55.74
2019-02-26T01:36:25.439Z,55.57
2019-02-26T01:38:53.197Z,55.57
2019-02-26T01:41:22.725Z,55.73
2019-02-26T01:43:49.628Z,55.69
2019-02-26T01:46:18.707Z,55.65
2019-02-26T01:48:46.047Z,55.71
2019-02-26T01:51:13.263Z,55.79
2019-02-26T01:53:41.953Z,55.91
2019-02-26T01:56:09.875Z,55.84
2019-02-26T01:58:37.067Z,55.84
2019-02-26T02:01:04.370Z,55.93
2019-02-26T02:03:32.599Z,55.93
2019-02-26T02:05:59.950Z,55.99
2019-02-26T02:08:27.156Z,55.29
2019-02-26T02:10:57.137Z,55.72
2019-02-26T02:13:26.226Z,55.72
2019-02-26T02:15:52.656Z,55.86
2019-02-26T02:18:21.028Z,56.16
2019-02-26T02:20:49.044Z,56.19
2019-02-26T02:23:16.302Z,55.99
2019-02-26T02:25:45.558Z,56.29
2019-02-26T02:28:12.593Z,56.55
2019-02-26T02:30:39.803Z,56.55
2019-02-26T02:33:07.075Z,56.52
2019-02-26T02:35:34.228Z,56.51
2019-02-26T02:38:02.966Z,56.72
2019-02-26T02:40:30.654Z,56.98
2019-02-26T02:42:57.833Z,56.98
2019-02-26T02:45:25.034Z,56.86
2019-02-26T02:47:57.814Z,56.71
2019-02-26T02:50:21.305Z,56.71
2019-02-26T02:52:50.581Z,57.08
2019-02-26T02:55:19.286Z,57.36
2019-02-26T02:57:49.356Z,57.27
2019-02-26T03:00:16.292Z,57.27
2019-02-26T03:02:46.381Z,57.66
2019-02-26T03:05:12.771Z,57.10
2019-02-26T03:07:42.060Z,57.10
2019-02-26T03:10:11.584Z,56.86
2019-02-26T03:12:38.334Z,56.75
2019-02-26T03:15:08.059Z,56.72
2019-02-26T03:17:36.128Z,56.92
2019-02-26T03:20:05.560Z,56.92
2019-02-26T03:22:36.138Z,56.74
2019-02-26T03:25:02.821Z,56.74
2019-02-26T03:27:31.385Z,56.79
2019-02-26T03:30:01.727Z,56.84
2019-02-26T03:32:28.363Z,56.84
2019-02-26T03:34:55.572Z,56.91
2019-02-26T03:37:23.351Z,56.91
2019-02-26T03:39:52.656Z,56.72
2019-02-26T03:42:21.216Z,56.44
2019-02-26T03:44:48.675Z,56.44
2019-02-26T03:47:16.335Z,56.77
2019-02-26T03:49:45.075Z,56.77
2019-02-26T03:52:15.392Z,57.00
2019-02-26T03:54:42.965Z,57.10
2019-02-26T03:57:11.458Z,56.97
2019-02-26T03:59:39.701Z,56.93
2019-02-26T04:02:07.295Z,56.91
2019-02-26T04:04:36.185Z,57.11
2019-02-26T04:07:04.922Z,57.11
2019-02-26T04:09:32.457Z,56.90
2019-02-26T04:11:59.811Z,56.64
2019-02-26T04:14:28.775Z,56.69
2019-02-26T04:16:58.662Z,56.69
2019-02-26T04:19:26.787Z,57.07
2019-02-26T04:22:28.857Z,57.07
2019-02-26T04:25:09.144Z,56.93
2019-02-26T04:28:33.464Z,57.20
2019-02-26T04:31:44.616Z,57.24
2019-02-26T04:34:26.921Z,57.67
2019-02-26T04:37:41.886Z,57.68
2019-02-26T04:40:20.488Z,57.68
2019-02-26T04:43:34.110Z,57.33
2019-02-26T04:46:39.662Z,57.55
2019-02-26T04:49:07.030Z,57.55
2019-02-26T04:51:36.427Z,57.92
2019-02-26T04:54:03.357Z,57.79
2019-02-26T04:56:33.466Z,57.67
2019-02-26T04:58:59.647Z,57.67
2019-02-26T05:01:27.012Z,57.41
2019-02-26T05:03:54.197Z,57.48
2019-02-26T05:06:21.372Z,57.48
2019-02-26T05:08:48.582Z,57.40
2019-02-26T05:11:30.840Z,57.06
2019-02-26T05:13:45.024Z,57.07
2019-02-26T05:16:12.244Z,56.62
2019-02-26T05:18:39.612Z,56.73
2019-02-26T05:21:08.279Z,56.92
2019-02-26T05:23:35.918Z,56.92
2019-02-26T05:26:05.769Z,56.96
2019-02-26T05:28:35.627Z,56.91
2019-02-26T05:31:03.652Z,56.91
2019-02-26T05:33:32.757Z,56.89
2019-02-26T05:35:59.811Z,56.89
2019-02-26T05:38:29.624Z,56.61
2019-02-26T05:40:56.186Z,56.63
2019-02-26T05:43:25.747Z,57.05
2019-02-26T05:45:54.915Z,56.49
2019-02-26T05:48:23.805Z,56.47
2019-02-26T05:50:50.748Z,55.86
2019-02-26T05:53:17.981Z,55.86
2019-02-26T05:55:48.705Z,55.70
2019-02-26T05:58:16.420Z,55.70
2019-02-26T06:00:43.918Z,55.61
2019-02-26T06:03:12.824Z,55.57
2019-02-26T06:05:43.445Z,55.35
2019-02-26T06:08:09.633Z,55.47
2019-02-26T06:10:36.823Z,55.63
2019-02-26T06:13:05.008Z,55.63
2019-02-26T06:15:34.149Z,55.58
2019-02-26T06:18:01.475Z,55.60
2019-02-26T06:20:31.203Z,55.53
2019-02-26T06:22:57.783Z,55.63
2019-02-26T06:25:25.074Z,55.58
2019-02-26T06:27:52.255Z,55.52
2019-02-26T06:30:19.459Z,55.57
2019-02-26T06:32:46.696Z,55.63
2019-02-26T06:35:16.559Z,55.66
2019-02-26T06:37:43.675Z,55.46
2019-02-26T06:40:11.882Z,55.79
2019-02-26T06:42:40.339Z,55.78
2019-02-26T06:45:10.861Z,55.59
2019-02-26T06:47:38.036Z,55.59
2019-02-26T06:50:07.892Z,55.49
2019-02-26T06:52:37.191Z,56.31
2019-02-26T06:55:05.927Z,55.92
2019-02-26T06:57:33.922Z,56.14
2019-02-26T07:00:04.246Z,56.14
2019-02-26T07:02:33.522Z,56.44
2019-02-26T07:05:01.396Z,56.26
2019-02-26T07:07:30.663Z,56.26
2019-02-26T07:09:58.218Z,56.34
2019-02-26T07:12:26.505Z,56.44
2019-02-26T07:14:55.567Z,56.29
2019-02-26T07:17:23.263Z,56.29
2019-02-26T07:19:52.968Z,56.17
2019-02-26T07:22:19.651Z,55.67
2019-02-26T07:24:49.644Z,55.67
2019-02-26T07:27:16.137Z,55.47
2019-02-26T07:29:45.549Z,55.47
2019-02-26T07:32:14.615Z,55.09
2019-02-26T07:34:42.812Z,55.09
2019-02-26T07:37:11.696Z,55.12
2019-02-26T07:39:41.926Z,54.96
2019-02-26T07:42:09.647Z,54.90
2019-02-26T07:44:38.188Z,54.82
2019-02-26T07:47:06.669Z,54.76
2019-02-26T07:49:34.654Z,54.96
2019-02-26T07:52:05.488Z,54.42
2019-02-26T07:54:30.967Z,54.42
2019-02-26T07:57:00.119Z,54.42
2019-02-26T07:59:27.908Z,54.42
2019-02-26T08:01:56.363Z,54.09
2019-02-26T08:04:23.574Z,54.10
2019-02-26T08:06:52.371Z,54.00
2019-02-26T08:09:21.832Z,54.00
2019-02-26T08:11:49.151Z,54.17
2019-02-26T08:14:18.337Z,53.90
2019-02-26T08:16:49.267Z,53.90
2019-02-26T08:19:14.589Z,54.09
2019-02-26T08:21:41.911Z,54.09
2019-02-26T08:24:10.633Z,53.54
2019-02-26T08:26:40.380Z,53.54
2019-02-26T08:29:07.970Z,53.35
2019-02-26T08:31:36.460Z,53.41
2019-02-26T08:34:03.731Z,53.37
2019-02-26T08:36:30.966Z,53.37
2019-02-26T08:38:58.249Z,53.18
2019-02-26T08:41:25.532Z,53.04
2019-02-26T08:43:54.597Z,52.67
2019-02-26T08:46:22.210Z,52.67
2019-02-26T08:48:50.782Z,52.68
2019-02-26T08:51:18.985Z,52.67
2019-02-26T08:53:49.384Z,52.32
2019-02-26T08:56:18.619Z,52.58
2019-02-26T08:58:45.608Z,52.42
2019-02-26T09:01:12.884Z,52.11
2019-02-26T09:03:40.946Z,52.11
2019-02-26T09:06:13.327Z,51.99
2019-02-26T09:08:38.585Z,51.81
2019-02-26T09:11:10.170Z,51.81
2019-02-26T09:13:38.712Z,51.75
2019-02-26T09:16:07.854Z,51.67
2019-02-26T09:18:37.872Z,51.62
2019-02-26T09:21:04.231Z,51.61
2019-02-26T09:23:32.872Z,51.66
2019-02-26T09:26:02.068Z,51.49
2019-02-26T09:28:31.566Z,51.41
2019-02-26T09:31:01.175Z,51.38
2019-02-26T09:33:32.533Z,51.27
2019-02-26T09:35:56.852Z,51.18
2019-02-26T09:38:25.546Z,51.08
2019-02-26T09:40:54.651Z,50.99
2019-02-26T09:43:24.349Z,50.97
2019-02-26T09:45:52.907Z,50.97
2019-02-26T09:48:22.010Z,50.96
2019-02-26T09:50:49.333Z,50.89
2019-02-26T09:53:16.561Z,50.82
2019-02-26T09:55:43.776Z,50.74
2019-02-26T09:58:11.094Z,50.72
2019-02-26T10:00:38.238Z,50.73
2019-02-26T10:03:07.929Z,50.71
2019-02-26T10:05:34.616Z,50.66
2019-02-26T10:08:04.814Z,50.56
2019-02-26T10:10:33.514Z,50.51
2019-02-26T10:13:02.868Z,50.44
2019-02-26T10:15:29.152Z,50.40
2019-02-26T10:17:58.780Z,50.31
2019-02-26T10:20:28.592Z,50.27
2019-02-26T10:22:57.643Z,50.18
2019-02-26T10:25:25.706Z,50.13
2019-02-26T10:27:53.013Z,50.08
2019-02-26T10:30:20.207Z,50.02
2019-02-26T10:32:47.402Z,49.91
2019-02-26T10:35:18.504Z,49.91
2019-02-26T10:37:52.189Z,49.90
2019-02-26T10:40:19.636Z,49.86
2019-02-26T10:42:46.992Z,49.79
2019-02-26T10:45:15.203Z,49.73
2019-02-26T10:47:42.472Z,49.66
2019-02-26T10:50:13.050Z,49.60
2019-02-26T10:52:40.886Z,49.57
2019-02-26T10:55:12.819Z,49.53
2019-02-26T10:57:38.478Z,49.47
2019-02-26T11:00:10.844Z,49.45
2019-02-26T11:02:38.271Z,49.37
2019-02-26T11:05:06.215Z,49.34
2019-02-26T11:07:34.608Z,49.29
2019-02-26T11:10:02.539Z,49.23
2019-02-26T11:12:33.404Z,49.15
2019-02-26T11:15:01.413Z,49.11
2019-02-26T11:17:28.942Z,48.96
2019-02-26T11:19:58.625Z,48.91
2019-02-26T11:22:28.021Z,48.90
2019-02-26T11:24:56.115Z,48.81
2019-02-26T11:27:24.615Z,48.69
2019-02-26T11:29:52.617Z,49.03
2019-02-26T11:32:21.113Z,49.48
2019-02-26T11:34:50.302Z,49.45
2019-02-26T11:37:17.536Z,49.14
2019-02-26T11:39:44.781Z,48.91
2019-02-26T11:42:11.946Z,48.71
2019-02-26T11:44:39.136Z,48.61
2019-02-26T11:47:08.637Z,48.52
2019-02-26T11:49:37.011Z,48.37
2019-02-26T11:52:05.323Z,48.33
2019-02-26T11:54:34.461Z,48.24
2019-02-26T11:57:01.683Z,48.22
2019-02-26T11:59:31.057Z,48.15
2019-02-26T12:01:59.084Z,48.08
2019-02-26T12:04:27.187Z,47.98
2019-02-26T12:06:55.806Z,48.08
2019-02-26T12:09:23.481Z,48.01
2019-02-26T12:11:50.699Z,47.93
2019-02-26T12:14:19.457Z,47.78
2019-02-26T12:16:47.011Z,47.71
2019-02-26T12:19:17.268Z,47.64
2019-02-26T12:21:49.197Z,47.76
2019-02-26T12:24:15.116Z,48.04
2019-02-26T12:26:44.681Z,48.14
2019-02-26T12:29:11.601Z,48.17
2019-02-26T12:31:39.155Z,48.50
2019-02-26T12:34:09.129Z,48.76
2019-02-26T12:36:35.711Z,48.75
2019-02-26T12:39:03.645Z,48.64
2019-02-26T12:41:33.252Z,48.47
2019-02-26T12:44:02.048Z,48.41
2019-02-26T12:46:31.945Z,48.34
2019-02-26T12:49:02.757Z,48.32
2019-02-26T12:51:31.764Z,48.29
2019-02-26T12:53:58.017Z,48.38
2019-02-26T12:56:27.861Z,48.16
2019-02-26T12:58:54.738Z,47.90
2019-02-26T13:01:22.030Z,47.88
2019-02-26T13:03:53.993Z,47.77
2019-02-26T13:06:21.540Z,47.68
2019-02-26T13:08:49.781Z,47.53
2019-02-26T13:11:17.860Z,47.45
2019-02-26T13:13:48.610Z,47.38
2019-02-26T13:16:14.863Z,47.34
2019-02-26T13:18:42.074Z,47.42
2019-02-26T13:21:13.226Z,47.40
2019-02-26T13:23:38.375Z,47.39
2019-02-26T13:26:08.308Z,47.35
2019-02-26T13:28:34.660Z,47.20
2019-02-26T13:31:04.778Z,47.15
2019-02-26T13:33:35.208Z,47.14
2019-02-26T13:36:01.846Z,47.10
2019-02-26T13:38:36.894Z,47.08
2019-02-26T13:41:19.831Z,47.05
2019-02-26T13:43:28.660Z,47.06
2019-02-26T13:45:55.896Z,47.02
2019-02-26T13:48:24.116Z,46.91
2019-02-26T13:50:51.285Z,46.92
2019-02-26T13:53:18.514Z,46.99
2019-02-26T13:55:45.701Z,46.97
2019-02-26T13:58:12.935Z,46.93
2019-02-26T14:00:40.169Z,46.89
2019-02-26T14:03:07.278Z,46.74
2019-02-26T14:05:38.122Z,46.79
2019-02-26T14:08:03.583Z,46.84
2019-02-26T14:10:30.771Z,46.76
2019-02-26T14:12:58.040Z,46.76
2019-02-26T14:15:25.220Z,46.64
2019-02-26T14:17:52.586Z,46.43
2019-02-26T14:20:19.818Z,46.25
2019-02-26T14:22:47.027Z,45.93
2019-02-26T14:25:14.295Z,45.55
2019-02-26T14:27:41.504Z,45.22
2019-02-26T14:30:09.933Z,44.95
2019-02-26T14:32:37.081Z,44.71
2019-02-26T14:35:04.990Z,44.52
2019-02-26T14:37:32.194Z,44.29
2019-02-26T14:39:59.385Z,44.04
2019-02-26T14:42:26.741Z,43.78
2019-02-26T14:44:53.911Z,43.51
2019-02-26T14:47:21.191Z,43.28
2019-02-26T14:49:48.480Z,43.09
2019-02-26T14:52:15.728Z,43.02
2019-02-26T14:54:42.923Z,43.00
2019-02-26T14:57:10.379Z,43.06
2019-02-26T14:59:37.762Z,43.06
2019-02-26T15:02:04.895Z,43.11
2019-02-26T15:04:32.080Z,43.20
2019-02-26T15:06:59.318Z,43.26
2019-02-26T15:09:26.536Z,43.22
2019-02-26T15:11:53.738Z,43.08
2019-02-26T15:14:20.932Z,43.02
2019-02-26T15:16:48.135Z,42.98
2019-02-26T15:19:15.461Z,42.93
2019-02-26T15:21:42.610Z,42.84
2019-02-26T15:24:10.091Z,42.72
2019-02-26T15:26:37.291Z,42.66
2019-02-26T15:29:04.449Z,42.54
2019-02-26T15:31:31.645Z,42.42
2019-02-26T15:33:58.813Z,42.30
2019-02-26T15:36:26.088Z,42.19
2019-02-26T15:38:53.264Z,42.10
2019-02-26T15:41:20.463Z,42.08
2019-02-26T15:43:47.671Z,41.94
2019-02-26T15:46:15.020Z,41.85
2019-02-26T15:48:43.059Z,41.72
2019-02-26T15:51:14.264Z,41.63
2019-02-26T15:53:39.646Z,41.59
2019-02-26T15:56:06.802Z,41.53
2019-02-26T15:58:34.267Z,41.47
2019-02-26T16:01:01.961Z,41.52
2019-02-26T16:03:29.626Z,41.52
2019-02-26T16:05:57.319Z,41.50
2019-02-26T16:08:24.516Z,41.53
2019-02-26T16:10:51.702Z,41.52
2019-02-26T16:13:19.538Z,41.55
2019-02-26T16:15:46.873Z,41.61
2019-02-26T16:18:14.376Z,41.67
2019-02-26T16:20:41.590Z,41.82
2019-02-26T16:23:08.807Z,41.98
2019-02-26T16:25:36.023Z,42.09
2019-02-26T16:28:03.195Z,42.17
2019-02-26T16:30:30.456Z,42.23
2019-02-26T16:32:57.634Z,42.37
2019-02-26T16:35:25.681Z,42.47
2019-02-26T16:37:53.035Z,42.65
2019-02-26T16:40:20.303Z,42.83
2019-02-26T16:42:47.550Z,43.00
2019-02-26T16:45:16.464Z,43.37
2019-02-26T16:47:45.973Z,43.54
2019-02-26T16:50:14.123Z,43.74
2019-02-26T16:52:41.310Z,44.13
2019-02-26T16:55:08.774Z,44.42
2019-02-26T16:57:36.049Z,44.69
2019-02-26T17:00:03.948Z,44.86
2019-02-26T17:02:31.107Z,45.11
2019-02-26T17:04:58.294Z,45.29
2019-02-26T17:07:25.470Z,45.54
2019-02-26T17:09:55.435Z,45.74
2019-02-26T17:12:22.043Z,45.93
2019-02-26T17:14:50.676Z,46.19
2019-02-26T17:17:18.462Z,46.64
2019-02-26T17:19:48.365Z,46.95
2019-02-26T17:22:15.214Z,47.20
2019-02-26T17:24:42.515Z,47.39
2019-02-26T17:27:11.117Z,47.54
2019-02-26T17:29:38.384Z,47.72
2019-02-26T17:32:27.421Z,47.84
2019-02-26T17:34:55.759Z,47.96
2019-02-26T17:37:23.558Z,48.11
2019-02-26T17:39:50.815Z,48.27
2019-02-26T17:42:18.529Z,48.38
2019-02-26T17:44:46.106Z,48.49
2019-02-26T17:47:13.300Z,48.69
2019-02-26T17:49:40.615Z,48.82
2019-02-26T17:52:07.928Z,48.97
2019-02-26T17:54:36.895Z,49.24
2019-02-26T17:57:05.871Z,49.37
2019-02-26T17:59:33.190Z,49.43
2019-02-26T18:02:00.471Z,49.44
2019-02-26T18:04:27.675Z,49.51
2019-02-26T18:06:54.947Z,49.65
2019-02-26T18:09:22.106Z,49.55
2019-02-26T18:11:49.298Z,49.56
2019-02-26T18:14:16.559Z,49.63
2019-02-26T18:16:43.818Z,49.71
2019-02-26T18:19:12.410Z,49.78
2019-02-26T18:21:43.187Z,49.83
2019-02-26T18:24:09.186Z,49.92
2019-02-26T18:26:36.403Z,50.02
2019-02-26T18:29:03.567Z,50.02
2019-02-26T18:31:31.174Z,50.06
2019-02-26T18:33:58.863Z,50.11
2019-02-26T18:36:26.087Z,50.17
2019-02-26T18:38:53.259Z,50.21
2019-02-26T18:41:20.422Z,50.23
2019-02-26T18:43:48.089Z,50.29
2019-02-26T18:46:15.407Z,50.38
2019-02-26T18:48:43.307Z,50.44
2019-02-26T18:51:10.625Z,50.50
2019-02-26T18:53:37.795Z,50.55
2019-02-26T18:56:05.091Z,50.60
2019-02-26T18:58:32.344Z,50.64
2019-02-26T19:00:59.511Z,50.67
2019-02-26T19:03:26.650Z,50.70
2019-02-26T19:05:54.854Z,50.78
2019-02-26T19:08:22.144Z,50.80
2019-02-26T19:10:50.875Z,50.87
2019-02-26T19:13:18.875Z,50.91
2019-02-26T19:15:47.933Z,50.89
2019-02-26T19:18:15.284Z,50.90
2019-02-26T19:20:44.292Z,51.15
2019-02-26T19:23:11.633Z,51.34
2019-02-26T19:25:41.419Z,51.34
2019-02-26T19:28:09.796Z,51.45
2019-02-26T19:30:37.573Z,51.46
2019-02-26T19:33:05.164Z,51.49
2019-02-26T19:35:34.731Z,51.48
2019-02-26T19:38:02.006Z,51.52
2019-02-26T19:40:33.557Z,51.50
2019-02-26T19:43:00.858Z,51.48
2019-02-26T19:45:28.266Z,51.46
2019-02-26T19:47:56.503Z,51.85
2019-02-26T19:50:23.869Z,52.02
2019-02-26T19:52:57.105Z,52.33
2019-02-26T19:55:23.117Z,52.43
2019-02-26T19:57:50.295Z,52.48
2019-02-26T20:00:19.666Z,52.58
2019-02-26T20:02:47.584Z,52.63
2019-02-26T20:05:14.918Z,52.72
2019-02-26T20:07:42.210Z,52.94
2019-02-26T20:10:10.427Z,52.88
2019-02-26T20:12:37.823Z,52.96
2019-02-26T20:15:05.215Z,53.00
2019-02-26T20:17:32.675Z,52.97
2019-02-26T20:19:59.863Z,52.93
2019-02-26T20:22:30.094Z,53.03
2019-02-26T20:24:58.947Z,53.13
2019-02-26T20:27:26.154Z,53.18
2019-02-26T20:29:54.719Z,53.20
2019-02-26T20:32:21.911Z,53.27
2019-02-26T20:34:49.443Z,53.33
2019-02-26T20:37:16.760Z,53.38
2019-02-26T20:39:44.230Z,53.40
2019-02-26T20:42:11.702Z,53.39
2019-02-26T20:44:42.815Z,53.28
2019-02-26T20:47:08.296Z,53.40
2019-02-26T20:49:35.678Z,53.42
2019-02-26T20:52:02.906Z,53.59
2019-02-26T20:54:30.079Z,53.66
2019-02-26T20:56:57.258Z,53.77
2019-02-26T20:59:24.436Z,53.88
2019-02-26T21:01:51.624Z,53.85
2019-02-26T21:04:18.836Z,53.85
2019-02-26T21:06:46.019Z,53.99
2019-02-26T21:09:13.207Z,54.06
2019-02-26T21:11:40.410Z,54.08
2019-02-26T21:14:08.297Z,54.07
2019-02-26T21:16:35.635Z,54.04
2019-02-26T21:19:03.493Z,54.09
2019-02-26T21:21:30.855Z,54.24
2019-02-26T21:24:00.662Z,54.28
2019-02-26T21:26:27.190Z,54.37
2019-02-26T21:28:54.458Z,54.39
2019-02-26T21:31:21.644Z,54.42
2019-02-26T21:33:48.835Z,54.47
2019-02-26T21:36:16.160Z,54.51
2019-02-26T21:38:43.329Z,54.49
2019-02-26T21:41:10.570Z,54.61
2019-02-26T21:43:37.767Z,54.61
2019-02-26T21:46:05.002Z,54.67
2019-02-26T21:48:32.227Z,54.58
2019-02-26T21:50:59.429Z,54.63
2019-02-26T21:53:26.659Z,54.68
2019-02-26T21:55:55.568Z,54.84
2019-02-26T21:58:26.643Z,54.88
2019-02-26T22:00:52.183Z,54.95
2019-02-26T22:03:19.407Z,55.09
2019-02-26T22:05:46.616Z,55.16
2019-02-26T22:08:13.859Z,55.09
2019-02-26T22:10:42.808Z,55.12
2019-02-26T22:13:10.302Z,55.19
2019-02-26T22:15:37.499Z,55.18
2019-02-26T22:18:04.779Z,55.19
2019-02-26T22:20:36.246Z,55.29
2019-02-26T22:23:01.202Z,55.39
2019-02-26T22:25:29.330Z,55.37
2019-02-26T22:27:56.689Z,55.45
2019-02-26T22:30:23.895Z,55.63
2019-02-26T22:32:51.090Z,55.57
2019-02-26T22:35:18.318Z,55.53
2019-02-26T22:37:45.606Z,55.54
2019-02-26T22:40:12.845Z,55.62
2019-02-26T22:42:41.347Z,55.68
2019-02-26T22:45:09.378Z,56.17
2019-02-26T22:47:40.095Z,55.79
2019-02-26T22:50:07.915Z,55.28
2019-02-26T22:52:35.535Z,55.61
2019-02-26T22:55:02.971Z,55.86
2019-02-26T22:57:30.502Z,55.89
2019-02-26T22:59:57.787Z,55.86
2019-02-26T23:02:25.194Z,55.80
2019-02-26T23:04:53.202Z,55.80
2019-02-26T23:07:20.860Z,55.68
2019-02-26T23:09:52.187Z,55.72
2019-02-26T23:12:17.856Z,55.79
2019-02-26T23:14:45.133Z,56.05
2019-02-26T23:17:12.639Z,56.26
2019-02-26T23:19:39.961Z,56.50
2019-02-26T23:22:07.204Z,56.49
2019-02-26T23:24:34.703Z,56.52
2019-02-26T23:27:01.907Z,56.55
2019-02-26T23:29:29.137Z,56.55
2019-02-26T23:31:56.321Z,56.55
2019-02-26T23:34:23.546Z,56.65
2019-02-26T23:36:50.796Z,56.69
2019-02-26T23:39:18.098Z,56.74
2019-02-26T23:41:45.237Z,56.83
2019-02-26T23:44:13.139Z,56.95
2019-02-26T23:46:40.296Z,57.03
2019-02-26T23:49:07.524Z,56.97
2019-02-26T23:51:34.695Z,56.99
2019-02-26T23:54:01.946Z,56.93
2019-02-26T23:56:29.159Z,56.90
2019-02-26T23:58:56.378Z,56.93
